createdAt,value
2023-05-19T05:44:03.004Z,86.96
2023-05-19T05:46:52.643Z,86.96
2023-05-19T05:49:40.497Z,88.35
2023-05-19T05:52:31.092Z,88.94
2023-05-19T05:55:21.700Z,91.02
2023-05-19T05:58:11.613Z,90.11
2023-05-19T06:00:57.925Z,91.50
2023-05-19T06:03:45.208Z,92.67
2023-05-19T06:06:31.430Z,91.66
2023-05-19T06:09:17.257Z,91.89
2023-05-19T06:12:03.021Z,89.87
2023-05-19T06:14:48.515Z,88.89
2023-05-19T06:17:37.263Z,88.32
2023-05-19T06:20:22.850Z,85.05
2023-05-19T06:23:08.736Z,84.04
2023-05-19T06:25:54.372Z,82.55
2023-05-19T06:28:39.919Z,82.50
2023-05-19T06:31:26.789Z,81.96
2023-05-19T06:34:15.021Z,80.26
2023-05-19T06:37:02.528Z,79.80
2023-05-19T06:39:49.715Z,77.85
2023-05-19T06:42:35.206Z,77.81
2023-05-19T06:45:22.502Z,74.75
2023-05-19T06:48:09.804Z,74.69
2023-05-19T06:50:57.077Z,73.83
2023-05-19T06:53:42.785Z,75.27
2023-05-19T06:56:28.315Z,77.04
2023-05-19T06:59:13.902Z,77.90
2023-05-19T07:02:02.624Z,78.39
2023-05-19T07:04:48.072Z,76.79
2023-05-19T07:07:36.286Z,77.35
2023-05-19T07:10:22.122Z,77.87
2023-05-19T07:13:10.802Z,76.27
2023-05-19T07:15:56.322Z,75.89
2023-05-19T07:18:41.646Z,75.28
2023-05-19T07:21:27.002Z,75.85
2023-05-19T07:24:12.216Z,76.52
2023-05-19T07:26:58.178Z,76.78
2023-05-19T07:29:44.029Z,76.92
2023-05-19T07:32:29.326Z,77.58
2023-05-19T07:35:14.606Z,77.23
2023-05-19T07:37:59.904Z,77.38
2023-05-19T07:40:45.513Z,78.16
2023-05-19T07:43:34.308Z,79.07
2023-05-19T07:46:19.818Z,78.31
2023-05-19T07:49:05.117Z,76.20
2023-05-19T07:52:39.868Z,74.15
2023-05-19T07:55:26.375Z,73.91
2023-05-19T07:58:13.079Z,73.38
2023-05-19T08:00:59.092Z,73.62
2023-05-19T08:03:44.767Z,73.01
2023-05-19T08:06:30.167Z,73.34
2023-05-19T08:09:15.877Z,71.97
2023-05-19T08:12:02.334Z,71.52
2023-05-19T08:14:48.049Z,71.53
2023-05-19T08:17:33.644Z,71.67
2023-05-19T08:20:19.647Z,71.59
2023-05-19T08:23:05.586Z,70.53
2023-05-19T08:25:51.367Z,72.10
2023-05-19T08:28:36.655Z,71.98
2023-05-19T08:31:22.713Z,70.59
2023-05-19T08:34:08.056Z,69.53
2023-05-19T08:36:53.723Z,68.69
2023-05-19T08:39:39.463Z,68.88
2023-05-19T08:42:24.789Z,70.13
2023-05-19T08:45:10.937Z,70.99
2023-05-19T08:47:57.189Z,71.19
2023-05-19T08:50:47.549Z,71.42
2023-05-19T08:53:38.181Z,72.17
2023-05-19T08:56:26.822Z,71.83
2023-05-19T08:59:14.341Z,71.75
2023-05-19T09:02:00.012Z,71.67
2023-05-19T09:04:47.856Z,69.12
2023-05-19T09:07:35.031Z,66.61
2023-05-19T09:10:20.858Z,65.70
2023-05-19T09:13:07.907Z,66.19
2023-05-19T09:15:53.786Z,62.47
2023-05-19T09:18:40.687Z,60.46
2023-05-19T09:21:33.178Z,64.56
2023-05-19T09:24:19.450Z,62.78
2023-05-19T09:27:05.316Z,61.39
2023-05-19T09:29:51.159Z,61.97
2023-05-19T09:32:37.022Z,57.70
2023-05-19T09:35:22.630Z,59.34
2023-05-19T09:40:58.443Z,57.97
2023-05-19T09:43:44.225Z,51.42
2023-05-19T09:46:34.076Z,52.26
2023-05-19T09:49:22.053Z,54.82
2023-05-19T09:52:11.031Z,57.07
2023-05-19T09:54:56.960Z,56.05
2023-05-19T09:57:42.569Z,56.79
2023-05-19T10:00:34.786Z,54.24
2023-05-19T10:03:22.558Z,53.57
2023-05-19T10:06:09.377Z,51.35
2023-05-19T10:08:55.188Z,52.83
2023-05-19T10:11:41.583Z,51.57
2023-05-19T10:14:29.034Z,47.92
2023-05-19T10:17:14.806Z,46.84
2023-05-19T10:20:00.954Z,47.43
2023-05-19T10:22:46.624Z,47.68
2023-05-19T10:25:33.768Z,48.61
2023-05-19T10:28:21.214Z,49.29
2023-05-19T10:31:08.560Z,49.88
2023-05-19T10:34:12.585Z,50.48
2023-05-19T10:37:25.034Z,50.22
2023-05-19T10:40:29.810Z,51.32
2023-05-19T10:43:53.161Z,52.57
2023-05-19T10:46:40.626Z,51.53
2023-05-19T10:49:26.195Z,49.01
2023-05-19T10:52:22.187Z,46.19
2023-05-19T10:55:09.546Z,46.14
2023-05-19T10:57:56.985Z,45.64
2023-05-19T11:00:42.491Z,43.81
2023-05-19T11:03:44.766Z,44.57
2023-05-19T11:06:32.142Z,44.14
2023-05-19T11:09:34.011Z,45.72
2023-05-19T11:12:25.350Z,47.26
2023-05-19T11:15:15.094Z,45.67
2023-05-19T11:18:02.334Z,44.52
2023-05-19T11:20:58.237Z,43.97
2023-05-19T11:23:44.075Z,46.12
2023-05-19T11:26:43.459Z,50.83
2023-05-19T11:29:29.118Z,51.62
2023-05-19T11:32:20.076Z,51.57
2023-05-19T11:35:06.095Z,51.53
2023-05-19T11:37:55.027Z,50.83
2023-05-19T11:40:42.025Z,50.74
2023-05-19T11:43:27.601Z,49.07
2023-05-19T11:46:12.787Z,46.92
2023-05-19T11:48:57.998Z,45.15
2023-05-19T11:51:43.931Z,43.71
